CheckWX is a tool to help pilots better visualize weather data.  It is not intended as a substitute for an official pre-flight weather briefing.

22:54:53 UTC

LIRA METAR
Ciampino–G. B. Pastine International Airport
Roma, Italy
Current

35 mins ago

LIRA 242220Z 19005KT 9999 SCT040 13/11 Q1020
Observed
Feb-24 @ 22:20 UTC
Wind
  • 190° at 5 KTS
Visibility
10,000+ meters
Flight Rules
VFR
Cloud Levels
  • Scattered at 4,000' AGL
Temperature
13°C / 55°F
Dewpoint
11°C / 52°F
Humidity
88%
Altimeter
30.12" Hg
Pressure
1019.92 hPa
Previous

1 hour ago

LIRA 242150Z 20007KT 9999 SCT040 13/10 Q1020
Observed
Feb-24 @ 21:50 UTC
Wind
  • 200° at 7 KTS
Visibility
10,000+ meters
Flight Rules
VFR
Cloud Levels
  • Scattered at 4,000' AGL
Temperature
13°C / 55°F
Dewpoint
10°C / 50°F
Humidity
82%
Altimeter
30.12" Hg
Pressure
1019.92 hPa
Previous

2 hours ago

LIRA 242120Z 19005KT 9999 SCT040 13/10 Q1020
Observed
Feb-24 @ 21:20 UTC
Wind
  • 190° at 5 KTS
Visibility
10,000+ meters
Flight Rules
VFR
Cloud Levels
  • Scattered at 4,000' AGL
Temperature
13°C / 55°F
Dewpoint
10°C / 50°F
Humidity
82%
Altimeter
30.12" Hg
Pressure
1019.92 hPa